sensor_id;sensor_type;location;lat;lon;timestamp;P1;durP1;ratioP1;P2;durP2;ratioP2
45618;SDS011;31343;47.520;19.144;2022-10-28T00:02:25;17.10;;;10.30;;
45618;SDS011;31343;47.520;19.144;2022-10-28T00:04:51;17.25;;;10.25;;
45618;SDS011;31343;47.520;19.144;2022-10-28T00:07:17;18.67;;;10.90;;
45618;SDS011;31343;47.520;19.144;2022-10-28T00:09:42;15.98;;;9.90;;
45618;SDS011;31343;47.520;19.144;2022-10-28T00:12:08;15.48;;;10.00;;
45618;SDS011;31343;47.520;19.144;2022-10-28T00:14:34;18.55;;;10.30;;
45618;SDS011;31343;47.520;19.144;2022-10-28T00:16:59;15.35;;;9.55;;
45618;SDS011;31343;47.520;19.144;2022-10-28T00:19:25;17.10;;;8.95;;
45618;SDS011;31343;47.520;19.144;2022-10-28T00:21:51;18.67;;;10.52;;
45618;SDS011;31343;47.520;19.144;2022-10-28T00:24:16;18.90;;;9.75;;
45618;SDS011;31343;47.520;19.144;2022-10-28T00:26:42;17.90;;;10.07;;
45618;SDS011;31343;47.520;19.144;2022-10-28T00:29:12;18.98;;;10.73;;
45618;SDS011;31343;47.520;19.144;2022-10-28T00:31:40;19.65;;;10.52;;
45618;SDS011;31343;47.520;19.144;2022-10-28T00:34:12;15.68;;;9.77;;
45618;SDS011;31343;47.520;19.144;2022-10-28T00:36:41;17.42;;;10.48;;
45618;SDS011;31343;47.520;19.144;2022-10-28T00:39:13;20.20;;;10.20;;
45618;SDS011;31343;47.520;19.144;2022-10-28T00:41:42;19.23;;;11.30;;
45618;SDS011;31343;47.520;19.144;2022-10-28T00:49:53;18.25;;;10.90;;
45618;SDS011;31343;47.520;19.144;2022-10-28T00:52:23;17.10;;;9.93;;
45618;SDS011;31343;47.520;19.144;2022-10-28T00:54:53;17.42;;;10.23;;
45618;SDS011;31343;47.520;19.144;2022-10-28T00:57:23;20.23;;;9.98;;
45618;SDS011;31343;47.520;19.144;2022-10-28T00:59:52;16.30;;;10.70;;
45618;SDS011;31343;47.520;19.144;2022-10-28T01:02:19;16.13;;;11.18;;
45618;SDS011;31343;47.520;19.144;2022-10-28T01:04:45;19.10;;;11.23;;
45618;SDS011;31343;47.520;19.144;2022-10-28T01:07:12;21.25;;;11.18;;
45618;SDS011;31343;47.520;19.144;2022-10-28T01:09:39;20.60;;;11.15;;
45618;SDS011;31343;47.520;19.144;2022-10-28T01:17:21;23.63;;;11.45;;
45618;SDS011;31343;47.520;19.144;2022-10-28T01:30:56;20.75;;;12.20;;
45618;SDS011;31343;47.520;19.144;2022-10-28T01:37:11;21.95;;;12.48;;
45618;SDS011;31343;47.520;19.144;2022-10-28T01:40:11;18.88;;;11.02;;
45618;SDS011;31343;47.520;19.144;2022-10-28T01:42:55;21.20;;;11.65;;
45618;SDS011;31343;47.520;19.144;2022-10-28T01:45:27;19.55;;;11.38;;
45618;SDS011;31343;47.520;19.144;2022-10-28T01:48:01;19.00;;;11.30;;
45618;SDS011;31343;47.520;19.144;2022-10-28T01:50:39;21.48;;;11.93;;
45618;SDS011;31343;47.520;19.144;2022-10-28T01:53:18;19.90;;;11.95;;
45618;SDS011;31343;47.520;19.144;2022-10-28T01:55:48;19.50;;;11.18;;
45618;SDS011;31343;47.520;19.144;2022-10-28T01:58:17;20.40;;;11.27;;
45618;SDS011;31343;47.520;19.144;2022-10-28T02:00:48;23.30;;;11.93;;
45618;SDS011;31343;47.520;19.144;2022-10-28T02:03:15;19.05;;;11.93;;
45618;SDS011;31343;47.520;19.144;2022-10-28T02:05:45;20.52;;;11.70;;
45618;SDS011;31343;47.520;19.144;2022-10-28T02:11:09;19.20;;;11.95;;
45618;SDS011;31343;47.520;19.144;2022-10-28T02:25:33;24.77;;;13.23;;
45618;SDS011;31343;47.520;19.144;2022-10-28T02:33:10;22.25;;;13.65;;
45618;SDS011;31343;47.520;19.144;2022-10-28T02:35:51;22.85;;;12.35;;
45618;SDS011;31343;47.520;19.144;2022-10-28T02:38:35;26.85;;;13.88;;
45618;SDS011;31343;47.520;19.144;2022-10-28T02:41:15;26.75;;;12.30;;
45618;SDS011;31343;47.520;19.144;2022-10-28T02:43:49;21.83;;;12.35;;
45618;SDS011;31343;47.520;19.144;2022-10-28T02:46:18;25.02;;;13.57;;
45618;SDS011;31343;47.520;19.144;2022-10-28T02:48:47;24.88;;;13.00;;
45618;SDS011;31343;47.520;19.144;2022-10-28T02:51:29;28.02;;;14.23;;
45618;SDS011;31343;47.520;19.144;2022-10-28T02:59:25;30.73;;;13.13;;
45618;SDS011;31343;47.520;19.144;2022-10-28T03:01:53;25.23;;;13.85;;
45618;SDS011;31343;47.520;19.144;2022-10-28T03:04:18;29.77;;;14.77;;
45618;SDS011;31343;47.520;19.144;2022-10-28T03:06:44;27.05;;;13.90;;
45618;SDS011;31343;47.520;19.144;2022-10-28T03:09:10;26.70;;;14.13;;
45618;SDS011;31343;47.520;19.144;2022-10-28T03:11:35;26.33;;;13.70;;
45618;SDS011;31343;47.520;19.144;2022-10-28T03:14:01;25.98;;;12.50;;
45618;SDS011;31343;47.520;19.144;2022-10-28T03:16:27;23.52;;;12.98;;
45618;SDS011;31343;47.520;19.144;2022-10-28T03:18:53;23.60;;;11.80;;
45618;SDS011;31343;47.520;19.144;2022-10-28T03:21:19;26.38;;;13.77;;
45618;SDS011;31343;47.520;19.144;2022-10-28T03:23:45;22.40;;;11.57;;
45618;SDS011;31343;47.520;19.144;2022-10-28T03:26:10;28.58;;;14.18;;
45618;SDS011;31343;47.520;19.144;2022-10-28T03:28:36;27.05;;;12.35;;
45618;SDS011;31343;47.520;19.144;2022-10-28T03:31:02;24.30;;;11.80;;
45618;SDS011;31343;47.520;19.144;2022-10-28T03:33:28;32.85;;;15.45;;
45618;SDS011;31343;47.520;19.144;2022-10-28T03:35:53;30.60;;;11.85;;
45618;SDS011;31343;47.520;19.144;2022-10-28T03:38:19;26.23;;;14.05;;
45618;SDS011;31343;47.520;19.144;2022-10-28T03:40:49;24.13;;;12.23;;
45618;SDS011;31343;47.520;19.144;2022-10-28T03:43:16;25.35;;;11.98;;
45618;SDS011;31343;47.520;19.144;2022-10-28T03:45:42;31.10;;;13.25;;
45618;SDS011;31343;47.520;19.144;2022-10-28T03:48:08;27.90;;;13.60;;
45618;SDS011;31343;47.520;19.144;2022-10-28T03:50:34;26.17;;;10.65;;
45618;SDS011;31343;47.520;19.144;2022-10-28T03:53:00;23.48;;;11.85;;
45618;SDS011;31343;47.520;19.144;2022-10-28T03:55:25;26.60;;;12.10;;
45618;SDS011;31343;47.520;19.144;2022-10-28T03:57:51;21.35;;;11.32;;
45618;SDS011;31343;47.520;19.144;2022-10-28T04:00:18;22.67;;;11.77;;
45618;SDS011;31343;47.520;19.144;2022-10-28T04:02:50;21.80;;;11.07;;
45618;SDS011;31343;47.520;19.144;2022-10-28T04:05:17;23.90;;;12.20;;
45618;SDS011;31343;47.520;19.144;2022-10-28T04:07:44;22.38;;;10.60;;
45618;SDS011;31343;47.520;19.144;2022-10-28T04:10:10;28.13;;;13.82;;
45618;SDS011;31343;47.520;19.144;2022-10-28T04:12:35;26.90;;;13.82;;
45618;SDS011;31343;47.520;19.144;2022-10-28T04:15:01;27.63;;;13.52;;
45618;SDS011;31343;47.520;19.144;2022-10-28T04:17:28;26.65;;;11.55;;
45618;SDS011;31343;47.520;19.144;2022-10-28T04:19:54;23.65;;;12.77;;
45618;SDS011;31343;47.520;19.144;2022-10-28T04:22:19;24.55;;;11.77;;
45618;SDS011;31343;47.520;19.144;2022-10-28T04:24:45;23.83;;;12.20;;
45618;SDS011;31343;47.520;19.144;2022-10-28T04:27:11;26.25;;;11.48;;
45618;SDS011;31343;47.520;19.144;2022-10-28T04:29:36;23.88;;;12.20;;
45618;SDS011;31343;47.520;19.144;2022-10-28T04:32:02;24.10;;;11.48;;
45618;SDS011;31343;47.520;19.144;2022-10-28T04:34:28;22.90;;;11.85;;
45618;SDS011;31343;47.520;19.144;2022-10-28T04:36:54;22.55;;;11.50;;
45618;SDS011;31343;47.520;19.144;2022-10-28T04:39:20;22.70;;;10.98;;
45618;SDS011;31343;47.520;19.144;2022-10-28T04:41:46;23.17;;;10.68;;
45618;SDS011;31343;47.520;19.144;2022-10-28T04:44:12;26.98;;;12.15;;
45618;SDS011;31343;47.520;19.144;2022-10-28T04:46:37;24.55;;;11.05;;
45618;SDS011;31343;47.520;19.144;2022-10-28T04:49:03;24.98;;;11.05;;
45618;SDS011;31343;47.520;19.144;2022-10-28T04:51:29;24.52;;;10.73;;
45618;SDS011;31343;47.520;19.144;2022-10-28T04:53:55;19.00;;;10.50;;
45618;SDS011;31343;47.520;19.144;2022-10-28T04:56:21;20.80;;;9.32;;
45618;SDS011;31343;47.520;19.144;2022-10-28T04:58:47;25.33;;;11.45;;
45618;SDS011;31343;47.520;19.144;2022-10-28T05:01:12;21.52;;;10.32;;
45618;SDS011;31343;47.520;19.144;2022-10-28T05:03:38;24.15;;;10.38;;
45618;SDS011;31343;47.520;19.144;2022-10-28T05:06:04;22.52;;;10.07;;
45618;SDS011;31343;47.520;19.144;2022-10-28T05:08:29;23.25;;;11.77;;
45618;SDS011;31343;47.520;19.144;2022-10-28T05:10:55;23.83;;;9.48;;
45618;SDS011;31343;47.520;19.144;2022-10-28T05:13:21;22.02;;;10.35;;
45618;SDS011;31343;47.520;19.144;2022-10-28T05:15:47;20.25;;;9.05;;
45618;SDS011;31343;47.520;19.144;2022-10-28T05:18:13;22.63;;;10.05;;
45618;SDS011;31343;47.520;19.144;2022-10-28T05:20:39;27.25;;;10.98;;
45618;SDS011;31343;47.520;19.144;2022-10-28T05:23:05;21.85;;;10.35;;
45618;SDS011;31343;47.520;19.144;2022-10-28T05:25:31;24.20;;;11.02;;
45618;SDS011;31343;47.520;19.144;2022-10-28T05:27:57;24.40;;;9.50;;
45618;SDS011;31343;47.520;19.144;2022-10-28T05:30:24;23.77;;;10.88;;
45618;SDS011;31343;47.520;19.144;2022-10-28T05:32:50;24.25;;;10.30;;
45618;SDS011;31343;47.520;19.144;2022-10-28T05:35:16;20.20;;;8.93;;
45618;SDS011;31343;47.520;19.144;2022-10-28T05:37:42;24.88;;;9.27;;
45618;SDS011;31343;47.520;19.144;2022-10-28T05:40:08;23.58;;;10.65;;
45618;SDS011;31343;47.520;19.144;2022-10-28T05:42:39;24.55;;;13.43;;
45618;SDS011;31343;47.520;19.144;2022-10-28T05:45:07;24.08;;;10.90;;
45618;SDS011;31343;47.520;19.144;2022-10-28T05:47:34;24.50;;;10.32;;
45618;SDS011;31343;47.520;19.144;2022-10-28T05:49:59;22.80;;;10.25;;
45618;SDS011;31343;47.520;19.144;2022-10-28T05:52:25;19.35;;;10.07;;
45618;SDS011;31343;47.520;19.144;2022-10-28T05:54:51;19.10;;;10.20;;
45618;SDS011;31343;47.520;19.144;2022-10-28T05:57:16;20.52;;;9.43;;
45618;SDS011;31343;47.520;19.144;2022-10-28T05:59:42;23.98;;;10.57;;
45618;SDS011;31343;47.520;19.144;2022-10-28T06:02:12;21.00;;;11.77;;
45618;SDS011;31343;47.520;19.144;2022-10-28T06:04:39;22.92;;;11.07;;
45618;SDS011;31343;47.520;19.144;2022-10-28T06:07:05;18.08;;;9.23;;
45618;SDS011;31343;47.520;19.144;2022-10-28T06:09:31;24.02;;;9.60;;
45618;SDS011;31343;47.520;19.144;2022-10-28T06:11:58;20.50;;;9.63;;
45618;SDS011;31343;47.520;19.144;2022-10-28T06:14:23;18.15;;;9.50;;
45618;SDS011;31343;47.520;19.144;2022-10-28T06:16:49;20.98;;;10.93;;
45618;SDS011;31343;47.520;19.144;2022-10-28T06:19:15;17.60;;;8.90;;
45618;SDS011;31343;47.520;19.144;2022-10-28T06:21:41;19.58;;;10.07;;
45618;SDS011;31343;47.520;19.144;2022-10-28T06:24:06;22.67;;;10.13;;
45618;SDS011;31343;47.520;19.144;2022-10-28T06:26:33;18.10;;;8.35;;
45618;SDS011;31343;47.520;19.144;2022-10-28T06:28:59;23.40;;;10.18;;
45618;SDS011;31343;47.520;19.144;2022-10-28T06:31:24;20.25;;;9.18;;
45618;SDS011;31343;47.520;19.144;2022-10-28T06:33:50;20.35;;;9.85;;
45618;SDS011;31343;47.520;19.144;2022-10-28T06:36:16;22.25;;;9.77;;
45618;SDS011;31343;47.520;19.144;2022-10-28T06:38:42;20.30;;;10.93;;
45618;SDS011;31343;47.520;19.144;2022-10-28T06:41:07;18.08;;;9.50;;
45618;SDS011;31343;47.520;19.144;2022-10-28T06:43:33;18.08;;;8.23;;
45618;SDS011;31343;47.520;19.144;2022-10-28T06:46:02;17.98;;;8.52;;
45618;SDS011;31343;47.520;19.144;2022-10-28T06:48:29;18.00;;;9.00;;
45618;SDS011;31343;47.520;19.144;2022-10-28T06:50:57;20.63;;;10.07;;
45618;SDS011;31343;47.520;19.144;2022-10-28T06:53:24;19.73;;;7.88;;
45618;SDS011;31343;47.520;19.144;2022-10-28T06:55:53;22.20;;;10.20;;
45618;SDS011;31343;47.520;19.144;2022-10-28T06:58:20;18.77;;;9.93;;
45618;SDS011;31343;47.520;19.144;2022-10-28T07:00:45;20.10;;;9.30;;
45618;SDS011;31343;47.520;19.144;2022-10-28T07:03:12;20.98;;;9.48;;
45618;SDS011;31343;47.520;19.144;2022-10-28T07:05:38;18.52;;;10.18;;
45618;SDS011;31343;47.520;19.144;2022-10-28T07:08:04;18.58;;;8.93;;
45618;SDS011;31343;47.520;19.144;2022-10-28T07:10:30;17.20;;;9.13;;
45618;SDS011;31343;47.520;19.144;2022-10-28T07:12:56;18.52;;;8.55;;
45618;SDS011;31343;47.520;19.144;2022-10-28T07:15:21;18.90;;;10.15;;
45618;SDS011;31343;47.520;19.144;2022-10-28T07:17:51;17.38;;;8.55;;
45618;SDS011;31343;47.520;19.144;2022-10-28T07:20:20;21.63;;;8.93;;
45618;SDS011;31343;47.520;19.144;2022-10-28T07:22:46;19.08;;;10.02;;
45618;SDS011;31343;47.520;19.144;2022-10-28T07:25:12;21.25;;;9.57;;
45618;SDS011;31343;47.520;19.144;2022-10-28T07:27:38;16.50;;;9.98;;
45618;SDS011;31343;47.520;19.144;2022-10-28T07:30:04;23.77;;;9.50;;
45618;SDS011;31343;47.520;19.144;2022-10-28T07:32:30;22.38;;;9.63;;
45618;SDS011;31343;47.520;19.144;2022-10-28T07:34:57;24.33;;;11.40;;
45618;SDS011;31343;47.520;19.144;2022-10-28T07:37:22;19.15;;;9.68;;
45618;SDS011;31343;47.520;19.144;2022-10-28T07:39:48;21.98;;;10.52;;
45618;SDS011;31343;47.520;19.144;2022-10-28T07:42:14;18.67;;;10.88;;
45618;SDS011;31343;47.520;19.144;2022-10-28T07:44:39;27.35;;;11.52;;
45618;SDS011;31343;47.520;19.144;2022-10-28T07:47:05;23.63;;;9.98;;
45618;SDS011;31343;47.520;19.144;2022-10-28T07:49:31;22.00;;;10.50;;
45618;SDS011;31343;47.520;19.144;2022-10-28T07:51:57;18.13;;;9.75;;
45618;SDS011;31343;47.520;19.144;2022-10-28T07:54:22;21.00;;;10.00;;
45618;SDS011;31343;47.520;19.144;2022-10-28T07:56:48;21.42;;;10.82;;
45618;SDS011;31343;47.520;19.144;2022-10-28T07:59:14;17.92;;;10.60;;
45618;SDS011;31343;47.520;19.144;2022-10-28T08:01:40;20.52;;;10.73;;
45618;SDS011;31343;47.520;19.144;2022-10-28T08:04:05;20.65;;;10.30;;
45618;SDS011;31343;47.520;19.144;2022-10-28T08:06:34;32.55;;;13.45;;
45618;SDS011;31343;47.520;19.144;2022-10-28T08:09:00;41.67;;;16.30;;
45618;SDS011;31343;47.520;19.144;2022-10-28T08:11:26;27.35;;;11.85;;
45618;SDS011;31343;47.520;19.144;2022-10-28T08:13:52;25.35;;;10.98;;
45618;SDS011;31343;47.520;19.144;2022-10-28T08:16:19;25.27;;;13.27;;
45618;SDS011;31343;47.520;19.144;2022-10-28T08:18:45;20.50;;;10.52;;
45618;SDS011;31343;47.520;19.144;2022-10-28T08:21:11;22.33;;;10.57;;
45618;SDS011;31343;47.520;19.144;2022-10-28T08:23:38;25.27;;;11.45;;
45618;SDS011;31343;47.520;19.144;2022-10-28T08:26:05;19.90;;;9.50;;
45618;SDS011;31343;47.520;19.144;2022-10-28T08:28:31;17.48;;;9.52;;
45618;SDS011;31343;47.520;19.144;2022-10-28T08:31:02;17.10;;;7.80;;
45618;SDS011;31343;47.520;19.144;2022-10-28T08:33:31;20.88;;;9.10;;
45618;SDS011;31343;47.520;19.144;2022-10-28T08:35:57;17.50;;;8.50;;
45618;SDS011;31343;47.520;19.144;2022-10-28T08:38:23;22.80;;;8.52;;
45618;SDS011;31343;47.520;19.144;2022-10-28T08:49:11;19.80;;;9.63;;
45618;SDS011;31343;47.520;19.144;2022-10-28T08:51:47;15.50;;;8.68;;
45618;SDS011;31343;47.520;19.144;2022-10-28T08:54:25;19.52;;;8.02;;
45618;SDS011;31343;47.520;19.144;2022-10-28T08:56:56;16.42;;;8.07;;
45618;SDS011;31343;47.520;19.144;2022-10-28T08:59:28;17.13;;;8.50;;
45618;SDS011;31343;47.520;19.144;2022-10-28T09:02:11;19.70;;;9.30;;
45618;SDS011;31343;47.520;19.144;2022-10-28T09:04:46;17.35;;;9.02;;
45618;SDS011;31343;47.520;19.144;2022-10-28T09:07:34;18.95;;;8.93;;
45618;SDS011;31343;47.520;19.144;2022-10-28T09:10:02;17.70;;;9.32;;
45618;SDS011;31343;47.520;19.144;2022-10-28T09:20:19;16.92;;;9.80;;
45618;SDS011;31343;47.520;19.144;2022-10-28T09:25:23;16.40;;;8.75;;
45618;SDS011;31343;47.520;19.144;2022-10-28T09:28:05;15.45;;;8.60;;
45618;SDS011;31343;47.520;19.144;2022-10-28T09:34:10;16.40;;;8.90;;
45618;SDS011;31343;47.520;19.144;2022-10-28T09:36:52;19.75;;;9.30;;
45618;SDS011;31343;47.520;19.144;2022-10-28T09:39:52;17.25;;;8.82;;
45618;SDS011;31343;47.520;19.144;2022-10-28T09:42:24;17.35;;;9.68;;
45618;SDS011;31343;47.520;19.144;2022-10-28T09:47:26;19.95;;;9.27;;
45618;SDS011;31343;47.520;19.144;2022-10-28T09:50:10;18.05;;;9.90;;
45618;SDS011;31343;47.520;19.144;2022-10-28T09:55:48;21.80;;;10.25;;
45618;SDS011;31343;47.520;19.144;2022-10-28T09:58:14;20.30;;;11.15;;
45618;SDS011;31343;47.520;19.144;2022-10-28T10:00:42;24.70;;;12.82;;
45618;SDS011;31343;47.520;19.144;2022-10-28T10:03:08;20.17;;;9.75;;
45618;SDS011;31343;47.520;19.144;2022-10-28T10:05:38;20.77;;;11.98;;
45618;SDS011;31343;47.520;19.144;2022-10-28T10:08:11;21.77;;;11.57;;
45618;SDS011;31343;47.520;19.144;2022-10-28T10:13:28;20.92;;;11.02;;
45618;SDS011;31343;47.520;19.144;2022-10-28T10:18:44;20.55;;;10.77;;
45618;SDS011;31343;47.520;19.144;2022-10-28T10:21:14;24.83;;;11.68;;
45618;SDS011;31343;47.520;19.144;2022-10-28T10:23:40;18.48;;;10.25;;
45618;SDS011;31343;47.520;19.144;2022-10-28T10:26:12;19.92;;;11.23;;
45618;SDS011;31343;47.520;19.144;2022-10-28T10:28:47;19.95;;;11.32;;
45618;SDS011;31343;47.520;19.144;2022-10-28T10:31:19;21.20;;;10.98;;
45618;SDS011;31343;47.520;19.144;2022-10-28T10:33:50;18.52;;;10.13;;
45618;SDS011;31343;47.520;19.144;2022-10-28T10:36:18;19.83;;;9.75;;
45618;SDS011;31343;47.520;19.144;2022-10-28T10:38:48;19.15;;;11.20;;
45618;SDS011;31343;47.520;19.144;2022-10-28T10:46:44;18.17;;;10.55;;
45618;SDS011;31343;47.520;19.144;2022-10-28T10:49:11;20.60;;;10.35;;
45618;SDS011;31343;47.520;19.144;2022-10-28T10:52:01;19.50;;;10.57;;
45618;SDS011;31343;47.520;19.144;2022-10-28T10:54:25;17.58;;;10.82;;
45618;SDS011;31343;47.520;19.144;2022-10-28T10:56:54;17.63;;;10.07;;
45618;SDS011;31343;47.520;19.144;2022-10-28T10:59:38;19.00;;;11.93;;
45618;SDS011;31343;47.520;19.144;2022-10-28T11:02:13;18.33;;;10.95;;
45618;SDS011;31343;47.520;19.144;2022-10-28T11:04:48;19.65;;;10.95;;
45618;SDS011;31343;47.520;19.144;2022-10-28T11:07:25;20.52;;;11.20;;
45618;SDS011;31343;47.520;19.144;2022-10-28T11:09:52;19.42;;;10.82;;
45618;SDS011;31343;47.520;19.144;2022-10-28T11:12:32;19.60;;;11.32;;
45618;SDS011;31343;47.520;19.144;2022-10-28T11:15:19;16.65;;;10.07;;
45618;SDS011;31343;47.520;19.144;2022-10-28T11:17:55;20.25;;;11.40;;
45618;SDS011;31343;47.520;19.144;2022-10-28T11:25:52;20.10;;;11.23;;
45618;SDS011;31343;47.520;19.144;2022-10-28T11:39:08;23.50;;;12.70;;
45618;SDS011;31343;47.520;19.144;2022-10-28T11:47:48;22.45;;;12.23;;
45618;SDS011;31343;47.520;19.144;2022-10-28T11:53:02;20.17;;;10.60;;
45618;SDS011;31343;47.520;19.144;2022-10-28T11:55:55;16.70;;;10.18;;
45618;SDS011;31343;47.520;19.144;2022-10-28T12:01:30;21.08;;;11.15;;
45618;SDS011;31343;47.520;19.144;2022-10-28T12:12:52;21.90;;;12.10;;
45618;SDS011;31343;47.520;19.144;2022-10-28T12:16:02;22.83;;;12.10;;
45618;SDS011;31343;47.520;19.144;2022-10-28T12:21:02;22.20;;;11.23;;
45618;SDS011;31343;47.520;19.144;2022-10-28T12:23:36;20.27;;;11.48;;
45618;SDS011;31343;47.520;19.144;2022-10-28T12:26:07;20.27;;;10.68;;
45618;SDS011;31343;47.520;19.144;2022-10-28T12:28:41;21.42;;;11.20;;
45618;SDS011;31343;47.520;19.144;2022-10-28T12:33:52;26.30;;;11.60;;
45618;SDS011;31343;47.520;19.144;2022-10-28T12:38:57;20.55;;;11.45;;
45618;SDS011;31343;47.520;19.144;2022-10-28T12:41:41;24.70;;;11.73;;
45618;SDS011;31343;47.520;19.144;2022-10-28T12:44:29;21.55;;;11.52;;
45618;SDS011;31343;47.520;19.144;2022-10-28T12:49:56;22.15;;;12.45;;
45618;SDS011;31343;47.520;19.144;2022-10-28T13:00:59;23.80;;;12.82;;
45618;SDS011;31343;47.520;19.144;2022-10-28T13:03:45;19.02;;;10.98;;
45618;SDS011;31343;47.520;19.144;2022-10-28T13:15:13;18.85;;;11.48;;
45618;SDS011;31343;47.520;19.144;2022-10-28T13:26:31;23.88;;;12.45;;
45618;SDS011;31343;47.520;19.144;2022-10-28T13:29:01;22.95;;;12.57;;
45618;SDS011;31343;47.520;19.144;2022-10-28T13:31:38;24.67;;;11.75;;
45618;SDS011;31343;47.520;19.144;2022-10-28T13:34:06;22.42;;;12.77;;
45618;SDS011;31343;47.520;19.144;2022-10-28T13:36:38;21.08;;;12.20;;
45618;SDS011;31343;47.520;19.144;2022-10-28T13:44:45;23.90;;;12.00;;
45618;SDS011;31343;47.520;19.144;2022-10-28T13:50:07;26.90;;;12.93;;
45618;SDS011;31343;47.520;19.144;2022-10-28T13:52:35;24.70;;;12.63;;
45618;SDS011;31343;47.520;19.144;2022-10-28T13:58:19;27.63;;;12.95;;
45618;SDS011;31343;47.520;19.144;2022-10-28T14:00:48;24.67;;;12.02;;
45618;SDS011;31343;47.520;19.144;2022-10-28T14:03:18;23.52;;;12.00;;
45618;SDS011;31343;47.520;19.144;2022-10-28T14:05:54;23.20;;;11.63;;
45618;SDS011;31343;47.520;19.144;2022-10-28T14:08:25;21.58;;;12.07;;
45618;SDS011;31343;47.520;19.144;2022-10-28T14:13:24;26.08;;;12.27;;
45618;SDS011;31343;47.520;19.144;2022-10-28T14:16:08;21.80;;;12.23;;
45618;SDS011;31343;47.520;19.144;2022-10-28T14:18:40;27.88;;;12.80;;
45618;SDS011;31343;47.520;19.144;2022-10-28T14:21:07;23.08;;;12.15;;
45618;SDS011;31343;47.520;19.144;2022-10-28T14:26:06;23.50;;;13.98;;
45618;SDS011;31343;47.520;19.144;2022-10-28T14:36:30;25.30;;;12.63;;
45618;SDS011;31343;47.520;19.144;2022-10-28T14:39:16;29.83;;;14.55;;
45618;SDS011;31343;47.520;19.144;2022-10-28T14:44:43;28.20;;;14.23;;
45618;SDS011;31343;47.520;19.144;2022-10-28T14:53:17;24.73;;;11.90;;
45618;SDS011;31343;47.520;19.144;2022-10-28T14:55:55;23.38;;;12.27;;
45618;SDS011;31343;47.520;19.144;2022-10-28T14:58:37;27.58;;;13.45;;
45618;SDS011;31343;47.520;19.144;2022-10-28T15:03:40;24.20;;;11.48;;
45618;SDS011;31343;47.520;19.144;2022-10-28T15:08:45;22.83;;;12.43;;
45618;SDS011;31343;47.520;19.144;2022-10-28T15:11:14;24.33;;;13.57;;
45618;SDS011;31343;47.520;19.144;2022-10-28T15:13:41;23.05;;;13.07;;
45618;SDS011;31343;47.520;19.144;2022-10-28T15:16:24;23.63;;;13.60;;
45618;SDS011;31343;47.520;19.144;2022-10-28T15:18:54;23.55;;;13.50;;
45618;SDS011;31343;47.520;19.144;2022-10-28T15:21:21;23.73;;;12.77;;
45618;SDS011;31343;47.520;19.144;2022-10-28T15:24:02;23.60;;;13.10;;
45618;SDS011;31343;47.520;19.144;2022-10-28T15:26:32;26.33;;;13.75;;
45618;SDS011;31343;47.520;19.144;2022-10-28T15:28:57;26.50;;;13.23;;
45618;SDS011;31343;47.520;19.144;2022-10-28T15:31:24;22.88;;;12.70;;
45618;SDS011;31343;47.520;19.144;2022-10-28T15:33:50;27.35;;;13.00;;
45618;SDS011;31343;47.520;19.144;2022-10-28T15:36:17;25.75;;;13.13;;
45618;SDS011;31343;47.520;19.144;2022-10-28T15:39:34;28.98;;;14.60;;
45618;SDS011;31343;47.520;19.144;2022-10-28T15:41:43;27.30;;;12.57;;
45618;SDS011;31343;47.520;19.144;2022-10-28T15:44:55;21.60;;;13.05;;
45618;SDS011;31343;47.520;19.144;2022-10-28T15:46:57;27.13;;;12.75;;
45618;SDS011;31343;47.520;19.144;2022-10-28T15:49:42;25.95;;;13.60;;
45618;SDS011;31343;47.520;19.144;2022-10-28T15:52:19;25.73;;;13.18;;
45618;SDS011;31343;47.520;19.144;2022-10-28T15:54:53;24.83;;;13.98;;
45618;SDS011;31343;47.520;19.144;2022-10-28T15:57:21;26.58;;;16.00;;
45618;SDS011;31343;47.520;19.144;2022-10-28T16:00:09;28.73;;;14.30;;
45618;SDS011;31343;47.520;19.144;2022-10-28T16:08:00;25.15;;;14.65;;
45618;SDS011;31343;47.520;19.144;2022-10-28T16:10:34;33.83;;;16.50;;
45618;SDS011;31343;47.520;19.144;2022-10-28T16:13:14;28.58;;;15.38;;
45618;SDS011;31343;47.520;19.144;2022-10-28T16:15:51;30.55;;;16.88;;
45618;SDS011;31343;47.520;19.144;2022-10-28T16:18:17;26.17;;;15.30;;
45618;SDS011;31343;47.520;19.144;2022-10-28T16:20:43;29.85;;;14.25;;
45618;SDS011;31343;47.520;19.144;2022-10-28T16:23:12;30.70;;;14.63;;
45618;SDS011;31343;47.520;19.144;2022-10-28T16:25:44;29.48;;;13.65;;
45618;SDS011;31343;47.520;19.144;2022-10-28T16:28:29;26.83;;;15.68;;
45618;SDS011;31343;47.520;19.144;2022-10-28T16:30:58;30.83;;;15.95;;
45618;SDS011;31343;47.520;19.144;2022-10-28T16:33:27;26.90;;;14.85;;
45618;SDS011;31343;47.520;19.144;2022-10-28T16:36:02;30.30;;;16.30;;
45618;SDS011;31343;47.520;19.144;2022-10-28T16:38:30;34.65;;;15.60;;
45618;SDS011;31343;47.520;19.144;2022-10-28T16:40:57;27.98;;;15.48;;
45618;SDS011;31343;47.520;19.144;2022-10-28T16:43:26;37.05;;;17.13;;
45618;SDS011;31343;47.520;19.144;2022-10-28T16:45:53;33.55;;;17.15;;
45618;SDS011;31343;47.520;19.144;2022-10-28T16:48:22;34.50;;;15.98;;
45618;SDS011;31343;47.520;19.144;2022-10-28T16:50:50;30.15;;;15.23;;
45618;SDS011;31343;47.520;19.144;2022-10-28T16:53:18;25.35;;;14.40;;
45618;SDS011;31343;47.520;19.144;2022-10-28T16:55:44;31.10;;;16.52;;
45618;SDS011;31343;47.520;19.144;2022-10-28T16:58:11;26.42;;;14.32;;
45618;SDS011;31343;47.520;19.144;2022-10-28T17:00:37;29.90;;;15.77;;
45618;SDS011;31343;47.520;19.144;2022-10-28T17:03:04;30.65;;;15.32;;
45618;SDS011;31343;47.520;19.144;2022-10-28T17:05:30;28.65;;;14.63;;
45618;SDS011;31343;47.520;19.144;2022-10-28T17:07:57;32.25;;;15.73;;
45618;SDS011;31343;47.520;19.144;2022-10-28T17:10:24;30.15;;;14.70;;
45618;SDS011;31343;47.520;19.144;2022-10-28T17:12:51;30.00;;;14.02;;
45618;SDS011;31343;47.520;19.144;2022-10-28T17:15:17;27.75;;;16.15;;
45618;SDS011;31343;47.520;19.144;2022-10-28T17:17:43;30.67;;;16.40;;
45618;SDS011;31343;47.520;19.144;2022-10-28T17:20:09;27.70;;;15.02;;
45618;SDS011;31343;47.520;19.144;2022-10-28T17:22:35;28.48;;;14.93;;
45618;SDS011;31343;47.520;19.144;2022-10-28T17:25:02;26.27;;;15.10;;
45618;SDS011;31343;47.520;19.144;2022-10-28T17:27:28;25.20;;;13.02;;
45618;SDS011;31343;47.520;19.144;2022-10-28T17:29:54;29.27;;;15.25;;
45618;SDS011;31343;47.520;19.144;2022-10-28T17:32:20;26.88;;;13.48;;
45618;SDS011;31343;47.520;19.144;2022-10-28T17:34:46;28.98;;;15.05;;
45618;SDS011;31343;47.520;19.144;2022-10-28T17:37:11;25.88;;;13.90;;
45618;SDS011;31343;47.520;19.144;2022-10-28T17:39:37;25.73;;;14.10;;
45618;SDS011;31343;47.520;19.144;2022-10-28T17:42:03;31.63;;;14.50;;
45618;SDS011;31343;47.520;19.144;2022-10-28T17:44:28;24.75;;;13.77;;
45618;SDS011;31343;47.520;19.144;2022-10-28T17:46:54;25.25;;;13.88;;
45618;SDS011;31343;47.520;19.144;2022-10-28T17:49:20;25.02;;;13.30;;
45618;SDS011;31343;47.520;19.144;2022-10-28T17:51:45;25.83;;;14.52;;
45618;SDS011;31343;47.520;19.144;2022-10-28T17:54:11;27.25;;;13.82;;